sensor_id;sensor_type;location;lat;lon;timestamp;P1;durP1;ratioP1;P2;durP2;ratioP2
21170;SDS011;10743;52.160;20.910;2022-09-21T00:01:19;12.00;;;6.03;;
21170;SDS011;10743;52.160;20.910;2022-09-21T00:03:52;15.07;;;6.35;;
21170;SDS011;10743;52.160;20.910;2022-09-21T00:06:25;10.48;;;5.53;;
21170;SDS011;10743;52.160;20.910;2022-09-21T00:08:54;9.70;;;5.70;;
21170;SDS011;10743;52.160;20.910;2022-09-21T00:11:23;11.55;;;5.10;;
21170;SDS011;10743;52.160;20.910;2022-09-21T00:13:54;10.35;;;5.30;;
21170;SDS011;10743;52.160;20.910;2022-09-21T00:16:29;9.88;;;5.00;;
21170;SDS011;10743;52.160;20.910;2022-09-21T00:18:57;10.52;;;5.30;;
21170;SDS011;10743;52.160;20.910;2022-09-21T00:21:25;7.47;;;5.13;;
21170;SDS011;10743;52.160;20.910;2022-09-21T00:23:53;7.72;;;4.35;;
21170;SDS011;10743;52.160;20.910;2022-09-21T00:26:21;8.75;;;5.00;;
21170;SDS011;10743;52.160;20.910;2022-09-21T00:28:51;10.55;;;5.00;;
21170;SDS011;10743;52.160;20.910;2022-09-21T00:31:20;8.32;;;4.38;;
21170;SDS011;10743;52.160;20.910;2022-09-21T00:33:47;9.20;;;4.35;;
21170;SDS011;10743;52.160;20.910;2022-09-21T00:36:17;6.93;;;4.10;;
21170;SDS011;10743;52.160;20.910;2022-09-21T00:38:51;6.03;;;3.92;;
21170;SDS011;10743;52.160;20.910;2022-09-21T00:41:20;8.70;;;4.40;;
21170;SDS011;10743;52.160;20.910;2022-09-21T00:43:49;6.93;;;4.38;;
21170;SDS011;10743;52.160;20.910;2022-09-21T00:46:44;9.27;;;4.40;;
21170;SDS011;10743;52.160;20.910;2022-09-21T00:49:13;7.85;;;4.20;;
21170;SDS011;10743;52.160;20.910;2022-09-21T00:51:41;6.68;;;4.05;;
21170;SDS011;10743;52.160;20.910;2022-09-21T00:54:10;8.05;;;4.18;;
21170;SDS011;10743;52.160;20.910;2022-09-21T00:56:45;8.63;;;4.10;;
21170;SDS011;10743;52.160;20.910;2022-09-21T00:59:12;8.25;;;4.30;;
21170;SDS011;10743;52.160;20.910;2022-09-21T01:01:46;9.77;;;4.88;;
21170;SDS011;10743;52.160;20.910;2022-09-21T01:04:13;7.25;;;4.90;;
21170;SDS011;10743;52.160;20.910;2022-09-21T01:06:44;9.98;;;4.57;;
21170;SDS011;10743;52.160;20.910;2022-09-21T01:09:13;9.07;;;4.40;;
21170;SDS011;10743;52.160;20.910;2022-09-21T01:15:02;9.95;;;5.35;;
21170;SDS011;10743;52.160;20.910;2022-09-21T01:17:47;8.85;;;4.68;;
21170;SDS011;10743;52.160;20.910;2022-09-21T01:26:02;6.32;;;3.85;;
21170;SDS011;10743;52.160;20.910;2022-09-21T01:31:54;5.82;;;4.00;;
21170;SDS011;10743;52.160;20.910;2022-09-21T01:34:40;5.22;;;3.67;;
21170;SDS011;10743;52.160;20.910;2022-09-21T01:37:36;5.82;;;3.42;;
21170;SDS011;10743;52.160;20.910;2022-09-21T01:40:09;8.60;;;3.88;;
21170;SDS011;10743;52.160;20.910;2022-09-21T01:42:43;7.10;;;4.10;;
21170;SDS011;10743;52.160;20.910;2022-09-21T01:45:13;6.80;;;4.13;;
21170;SDS011;10743;52.160;20.910;2022-09-21T01:47:44;6.22;;;3.78;;
21170;SDS011;10743;52.160;20.910;2022-09-21T01:50:21;7.20;;;3.83;;
21170;SDS011;10743;52.160;20.910;2022-09-21T01:52:59;9.07;;;3.70;;
21170;SDS011;10743;52.160;20.910;2022-09-21T01:58:35;5.95;;;3.50;;
21170;SDS011;10743;52.160;20.910;2022-09-21T02:01:10;6.78;;;4.07;;
21170;SDS011;10743;52.160;20.910;2022-09-21T02:03:44;7.95;;;3.83;;
21170;SDS011;10743;52.160;20.910;2022-09-21T02:06:31;5.40;;;3.63;;
21170;SDS011;10743;52.160;20.910;2022-09-21T02:08:58;6.07;;;3.60;;
21170;SDS011;10743;52.160;20.910;2022-09-21T02:11:25;6.43;;;3.65;;
21170;SDS011;10743;52.160;20.910;2022-09-21T02:13:52;7.82;;;3.78;;
21170;SDS011;10743;52.160;20.910;2022-09-21T02:19:56;7.53;;;3.83;;
21170;SDS011;10743;52.160;20.910;2022-09-21T02:25:20;5.97;;;3.78;;
21170;SDS011;10743;52.160;20.910;2022-09-21T02:28:20;5.82;;;3.63;;
21170;SDS011;10743;52.160;20.910;2022-09-21T02:34:09;6.30;;;3.58;;
21170;SDS011;10743;52.160;20.910;2022-09-21T02:37:01;6.32;;;3.80;;
21170;SDS011;10743;52.160;20.910;2022-09-21T02:40:02;6.32;;;4.07;;
21170;SDS011;10743;52.160;20.910;2022-09-21T02:42:40;6.88;;;4.50;;
21170;SDS011;10743;52.160;20.910;2022-09-21T02:50:26;6.75;;;4.38;;
21170;SDS011;10743;52.160;20.910;2022-09-21T02:53:01;7.35;;;5.13;;
21170;SDS011;10743;52.160;20.910;2022-09-21T02:55:32;11.13;;;6.65;;
21170;SDS011;10743;52.160;20.910;2022-09-21T02:58:01;7.25;;;4.82;;
21170;SDS011;10743;52.160;20.910;2022-09-21T03:00:32;8.60;;;4.90;;
21170;SDS011;10743;52.160;20.910;2022-09-21T03:03:12;11.00;;;5.30;;
21170;SDS011;10743;52.160;20.910;2022-09-21T03:05:43;86.07;;;50.13;;
21170;SDS011;10743;52.160;20.910;2022-09-21T03:08:14;207.25;;;117.78;;
21170;SDS011;10743;52.160;20.910;2022-09-21T03:10:42;251.52;;;130.85;;
21170;SDS011;10743;52.160;20.910;2022-09-21T03:13:09;109.63;;;54.45;;
21170;SDS011;10743;52.160;20.910;2022-09-21T03:15:37;33.92;;;17.27;;
21170;SDS011;10743;52.160;20.910;2022-09-21T03:18:06;26.33;;;13.88;;
21170;SDS011;10743;52.160;20.910;2022-09-21T03:20:37;55.45;;;27.30;;
21170;SDS011;10743;52.160;20.910;2022-09-21T03:23:06;76.22;;;39.00;;
21170;SDS011;10743;52.160;20.910;2022-09-21T03:25:33;46.70;;;26.85;;
21170;SDS011;10743;52.160;20.910;2022-09-21T03:28:01;33.65;;;20.08;;
21170;SDS011;10743;52.160;20.910;2022-09-21T03:30:28;33.13;;;20.33;;
21170;SDS011;10743;52.160;20.910;2022-09-21T03:32:55;23.58;;;14.40;;
21170;SDS011;10743;52.160;20.910;2022-09-21T03:35:22;18.63;;;10.38;;
21170;SDS011;10743;52.160;20.910;2022-09-21T03:37:51;11.88;;;7.88;;
21170;SDS011;10743;52.160;20.910;2022-09-21T03:40:20;9.93;;;6.47;;
21170;SDS011;10743;52.160;20.910;2022-09-21T03:42:48;10.27;;;6.32;;
21170;SDS011;10743;52.160;20.910;2022-09-21T03:45:15;16.08;;;8.43;;
21170;SDS011;10743;52.160;20.910;2022-09-21T03:47:42;10.02;;;6.70;;
21170;SDS011;10743;52.160;20.910;2022-09-21T03:50:09;11.65;;;6.22;;
21170;SDS011;10743;52.160;20.910;2022-09-21T03:52:37;9.65;;;6.07;;
21170;SDS011;10743;52.160;20.910;2022-09-21T03:55:05;16.30;;;10.02;;
21170;SDS011;10743;52.160;20.910;2022-09-21T03:57:36;12.48;;;6.82;;
21170;SDS011;10743;52.160;20.910;2022-09-21T04:00:05;13.40;;;8.35;;
21170;SDS011;10743;52.160;20.910;2022-09-21T04:02:36;12.38;;;7.20;;
21170;SDS011;10743;52.160;20.910;2022-09-21T04:05:09;11.57;;;7.72;;
21170;SDS011;10743;52.160;20.910;2022-09-21T04:07:40;18.67;;;10.95;;
21170;SDS011;10743;52.160;20.910;2022-09-21T04:10:12;14.43;;;8.38;;
21170;SDS011;10743;52.160;20.910;2022-09-21T04:12:42;9.50;;;6.60;;
21170;SDS011;10743;52.160;20.910;2022-09-21T04:15:10;10.88;;;6.43;;
21170;SDS011;10743;52.160;20.910;2022-09-21T04:17:39;12.98;;;8.15;;
21170;SDS011;10743;52.160;20.910;2022-09-21T04:20:07;15.07;;;7.43;;
21170;SDS011;10743;52.160;20.910;2022-09-21T04:22:35;16.08;;;7.78;;
21170;SDS011;10743;52.160;20.910;2022-09-21T04:25:08;12.23;;;7.35;;
21170;SDS011;10743;52.160;20.910;2022-09-21T04:27:36;14.10;;;8.80;;
21170;SDS011;10743;52.160;20.910;2022-09-21T04:30:03;16.65;;;8.70;;
21170;SDS011;10743;52.160;20.910;2022-09-21T04:32:31;43.55;;;22.52;;
21170;SDS011;10743;52.160;20.910;2022-09-21T04:34:58;34.80;;;17.48;;
21170;SDS011;10743;52.160;20.910;2022-09-21T04:37:25;31.90;;;17.52;;
21170;SDS011;10743;52.160;20.910;2022-09-21T04:39:52;17.98;;;10.73;;
21170;SDS011;10743;52.160;20.910;2022-09-21T04:42:19;14.13;;;8.18;;
21170;SDS011;10743;52.160;20.910;2022-09-21T04:44:46;11.23;;;6.70;;
21170;SDS011;10743;52.160;20.910;2022-09-21T04:47:13;12.10;;;6.45;;
21170;SDS011;10743;52.160;20.910;2022-09-21T04:49:40;10.80;;;6.70;;
21170;SDS011;10743;52.160;20.910;2022-09-21T04:52:07;10.85;;;6.43;;
21170;SDS011;10743;52.160;20.910;2022-09-21T04:54:34;10.15;;;7.30;;
21170;SDS011;10743;52.160;20.910;2022-09-21T04:57:01;14.90;;;9.48;;
21170;SDS011;10743;52.160;20.910;2022-09-21T04:59:28;17.27;;;9.98;;
21170;SDS011;10743;52.160;20.910;2022-09-21T05:01:55;16.02;;;8.93;;
21170;SDS011;10743;52.160;20.910;2022-09-21T05:04:23;11.40;;;7.50;;
21170;SDS011;10743;52.160;20.910;2022-09-21T05:06:50;12.82;;;8.55;;
21170;SDS011;10743;52.160;20.910;2022-09-21T05:09:17;13.32;;;7.35;;
21170;SDS011;10743;52.160;20.910;2022-09-21T05:12:02;15.27;;;8.52;;
21170;SDS011;10743;52.160;20.910;2022-09-21T05:14:29;14.60;;;8.73;;
21170;SDS011;10743;52.160;20.910;2022-09-21T05:16:56;14.98;;;9.23;;
21170;SDS011;10743;52.160;20.910;2022-09-21T05:19:23;14.75;;;7.70;;
21170;SDS011;10743;52.160;20.910;2022-09-21T05:21:50;9.45;;;6.07;;
21170;SDS011;10743;52.160;20.910;2022-09-21T05:24:17;9.57;;;6.20;;
21170;SDS011;10743;52.160;20.910;2022-09-21T05:26:44;14.38;;;5.97;;
21170;SDS011;10743;52.160;20.910;2022-09-21T05:29:11;20.98;;;9.10;;
21170;SDS011;10743;52.160;20.910;2022-09-21T05:31:46;29.70;;;13.63;;
21170;SDS011;10743;52.160;20.910;2022-09-21T05:34:31;13.40;;;8.02;;
21170;SDS011;10743;52.160;20.910;2022-09-21T05:37:09;11.13;;;6.15;;
21170;SDS011;10743;52.160;20.910;2022-09-21T05:39:56;6.72;;;4.82;;
21170;SDS011;10743;52.160;20.910;2022-09-21T05:42:24;8.45;;;5.10;;
21170;SDS011;10743;52.160;20.910;2022-09-21T05:44:51;12.27;;;6.10;;
21170;SDS011;10743;52.160;20.910;2022-09-21T05:47:23;8.90;;;5.85;;
21170;SDS011;10743;52.160;20.910;2022-09-21T05:50:27;9.57;;;6.38;;
21170;SDS011;10743;52.160;20.910;2022-09-21T05:53:23;12.90;;;5.78;;
21170;SDS011;10743;52.160;20.910;2022-09-21T05:56:42;9.48;;;5.88;;
21170;SDS011;10743;52.160;20.910;2022-09-21T05:59:42;8.45;;;5.00;;
21170;SDS011;10743;52.160;20.910;2022-09-21T06:02:49;8.07;;;5.07;;
21170;SDS011;10743;52.160;20.910;2022-09-21T06:05:47;10.85;;;4.85;;
21170;SDS011;10743;52.160;20.910;2022-09-21T06:08:13;8.80;;;5.50;;
21170;SDS011;10743;52.160;20.910;2022-09-21T06:10:40;8.20;;;4.60;;
21170;SDS011;10743;52.160;20.910;2022-09-21T06:13:07;9.65;;;5.30;;
21170;SDS011;10743;52.160;20.910;2022-09-21T06:15:34;7.50;;;5.50;;
21170;SDS011;10743;52.160;20.910;2022-09-21T06:18:06;6.30;;;4.28;;
21170;SDS011;10743;52.160;20.910;2022-09-21T06:20:38;9.18;;;5.32;;
21170;SDS011;10743;52.160;20.910;2022-09-21T06:23:09;7.50;;;4.93;;
21170;SDS011;10743;52.160;20.910;2022-09-21T06:25:38;7.97;;;5.00;;
21170;SDS011;10743;52.160;20.910;2022-09-21T06:28:06;8.32;;;5.00;;
21170;SDS011;10743;52.160;20.910;2022-09-21T06:30:37;11.13;;;4.70;;
21170;SDS011;10743;52.160;20.910;2022-09-21T06:33:06;6.60;;;4.32;;
21170;SDS011;10743;52.160;20.910;2022-09-21T06:35:34;6.75;;;4.15;;
21170;SDS011;10743;52.160;20.910;2022-09-21T06:38:03;6.38;;;4.22;;
21170;SDS011;10743;52.160;20.910;2022-09-21T06:40:32;6.45;;;4.22;;
21170;SDS011;10743;52.160;20.910;2022-09-21T06:43:03;7.85;;;4.05;;
21170;SDS011;10743;52.160;20.910;2022-09-21T06:45:31;6.40;;;3.67;;
21170;SDS011;10743;52.160;20.910;2022-09-21T06:47:58;5.72;;;3.47;;
21170;SDS011;10743;52.160;20.910;2022-09-21T06:50:25;4.75;;;3.35;;
21170;SDS011;10743;52.160;20.910;2022-09-21T06:52:52;3.67;;;3.03;;
21170;SDS011;10743;52.160;20.910;2022-09-21T06:55:19;4.75;;;3.20;;
21170;SDS011;10743;52.160;20.910;2022-09-21T06:57:46;3.85;;;3.08;;
21170;SDS011;10743;52.160;20.910;2022-09-21T07:00:13;4.70;;;3.13;;
21170;SDS011;10743;52.160;20.910;2022-09-21T07:02:43;4.13;;;3.10;;
21170;SDS011;10743;52.160;20.910;2022-09-21T07:05:11;4.97;;;3.20;;
21170;SDS011;10743;52.160;20.910;2022-09-21T07:07:38;5.72;;;3.05;;
21170;SDS011;10743;52.160;20.910;2022-09-21T07:10:06;4.10;;;2.50;;
21170;SDS011;10743;52.160;20.910;2022-09-21T07:12:41;3.47;;;2.60;;
21170;SDS011;10743;52.160;20.910;2022-09-21T07:15:09;3.28;;;2.40;;
21170;SDS011;10743;52.160;20.910;2022-09-21T07:17:37;4.82;;;2.40;;
21170;SDS011;10743;52.160;20.910;2022-09-21T07:20:05;3.47;;;2.22;;
21170;SDS011;10743;52.160;20.910;2022-09-21T07:22:34;4.75;;;2.42;;
21170;SDS011;10743;52.160;20.910;2022-09-21T07:25:01;2.78;;;2.00;;
21170;SDS011;10743;52.160;20.910;2022-09-21T07:27:30;4.72;;;2.30;;
21170;SDS011;10743;52.160;20.910;2022-09-21T07:29:59;3.53;;;2.30;;
21170;SDS011;10743;52.160;20.910;2022-09-21T07:32:26;3.85;;;2.30;;
21170;SDS011;10743;52.160;20.910;2022-09-21T07:34:53;3.70;;;2.30;;
21170;SDS011;10743;52.160;20.910;2022-09-21T07:37:22;3.35;;;2.25;;
21170;SDS011;10743;52.160;20.910;2022-09-21T07:39:50;4.00;;;2.00;;
21170;SDS011;10743;52.160;20.910;2022-09-21T07:42:18;2.65;;;2.05;;
21170;SDS011;10743;52.160;20.910;2022-09-21T07:44:48;3.05;;;1.80;;
21170;SDS011;10743;52.160;20.910;2022-09-21T07:47:16;2.60;;;1.80;;
21170;SDS011;10743;52.160;20.910;2022-09-21T07:49:43;2.03;;;1.63;;
21170;SDS011;10743;52.160;20.910;2022-09-21T07:52:10;3.53;;;1.58;;
21170;SDS011;10743;52.160;20.910;2022-09-21T07:54:37;3.13;;;1.95;;
21170;SDS011;10743;52.160;20.910;2022-09-21T07:57:04;2.65;;;1.65;;
21170;SDS011;10743;52.160;20.910;2022-09-21T07:59:49;4.70;;;1.67;;
21170;SDS011;10743;52.160;20.910;2022-09-21T08:02:16;1.90;;;1.60;;
21170;SDS011;10743;52.160;20.910;2022-09-21T08:04:44;6.50;;;1.80;;
21170;SDS011;10743;52.160;20.910;2022-09-21T08:07:10;1.83;;;1.60;;
21170;SDS011;10743;52.160;20.910;2022-09-21T08:09:38;3.08;;;1.70;;
21170;SDS011;10743;52.160;20.910;2022-09-21T08:12:06;2.22;;;1.60;;
21170;SDS011;10743;52.160;20.910;2022-09-21T08:14:34;2.60;;;1.40;;
21170;SDS011;10743;52.160;20.910;2022-09-21T08:17:01;1.70;;;1.60;;
21170;SDS011;10743;52.160;20.910;2022-09-21T08:19:28;2.13;;;1.40;;
21170;SDS011;10743;52.160;20.910;2022-09-21T08:21:55;1.67;;;1.45;;
21170;SDS011;10743;52.160;20.910;2022-09-21T08:24:23;2.53;;;1.48;;
21170;SDS011;10743;52.160;20.910;2022-09-21T08:26:52;2.22;;;1.55;;
21170;SDS011;10743;52.160;20.910;2022-09-21T08:29:21;3.95;;;1.73;;
21170;SDS011;10743;52.160;20.910;2022-09-21T08:31:50;3.35;;;1.63;;
21170;SDS011;10743;52.160;20.910;2022-09-21T08:34:19;1.75;;;1.60;;
21170;SDS011;10743;52.160;20.910;2022-09-21T08:36:46;2.53;;;1.40;;
21170;SDS011;10743;52.160;20.910;2022-09-21T08:39:19;2.90;;;1.25;;
21170;SDS011;10743;52.160;20.910;2022-09-21T08:44:40;1.30;;;1.10;;
21170;SDS011;10743;52.160;20.910;2022-09-21T08:47:16;1.60;;;1.15;;
21170;SDS011;10743;52.160;20.910;2022-09-21T08:49:52;1.52;;;1.42;;
21170;SDS011;10743;52.160;20.910;2022-09-21T08:52:23;3.00;;;1.10;;
21170;SDS011;10743;52.160;20.910;2022-09-21T08:54:56;2.33;;;1.17;;
21170;SDS011;10743;52.160;20.910;2022-09-21T08:57:27;2.63;;;1.30;;
21170;SDS011;10743;52.160;20.910;2022-09-21T08:59:56;1.70;;;1.50;;
21170;SDS011;10743;52.160;20.910;2022-09-21T09:02:31;1.52;;;1.08;;
21170;SDS011;10743;52.160;20.910;2022-09-21T09:05:51;1.38;;;1.10;;
21170;SDS011;10743;52.160;20.910;2022-09-21T09:08:45;1.20;;;1.05;;
21170;SDS011;10743;52.160;20.910;2022-09-21T09:11:36;1.58;;;1.00;;
21170;SDS011;10743;52.160;20.910;2022-09-21T09:14:35;2.92;;;1.30;;
21170;SDS011;10743;52.160;20.910;2022-09-21T09:17:33;1.20;;;1.10;;
21170;SDS011;10743;52.160;20.910;2022-09-21T09:23:08;2.70;;;1.20;;
21170;SDS011;10743;52.160;20.910;2022-09-21T09:25:49;1.95;;;1.10;;
21170;SDS011;10743;52.160;20.910;2022-09-21T09:31:27;2.40;;;1.20;;
21170;SDS011;10743;52.160;20.910;2022-09-21T09:34:22;4.55;;;1.20;;
21170;SDS011;10743;52.160;20.910;2022-09-21T09:36:53;1.85;;;0.90;;
21170;SDS011;10743;52.160;20.910;2022-09-21T09:39:26;1.25;;;1.15;;
21170;SDS011;10743;52.160;20.910;2022-09-21T09:41:58;2.03;;;1.45;;
21170;SDS011;10743;52.160;20.910;2022-09-21T09:45:13;2.53;;;1.38;;
21170;SDS011;10743;52.160;20.910;2022-09-21T09:50:52;3.08;;;1.98;;
21170;SDS011;10743;52.160;20.910;2022-09-21T09:53:20;1.98;;;1.38;;
21170;SDS011;10743;52.160;20.910;2022-09-21T09:55:54;3.47;;;1.30;;
21170;SDS011;10743;52.160;20.910;2022-09-21T09:58:34;2.67;;;1.30;;
21170;SDS011;10743;52.160;20.910;2022-09-21T10:04:15;2.88;;;1.15;;
21170;SDS011;10743;52.160;20.910;2022-09-21T10:06:43;6.20;;;1.20;;
21170;SDS011;10743;52.160;20.910;2022-09-21T10:09:21;3.30;;;1.20;;
21170;SDS011;10743;52.160;20.910;2022-09-21T10:11:59;3.45;;;1.20;;
21170;SDS011;10743;52.160;20.910;2022-09-21T10:14:35;4.65;;;1.20;;
21170;SDS011;10743;52.160;20.910;2022-09-21T10:17:04;2.08;;;1.40;;
21170;SDS011;10743;52.160;20.910;2022-09-21T10:19:33;2.45;;;1.10;;
21170;SDS011;10743;52.160;20.910;2022-09-21T10:22:00;1.73;;;1.30;;
21170;SDS011;10743;52.160;20.910;2022-09-21T10:24:30;2.20;;;1.23;;
21170;SDS011;10743;52.160;20.910;2022-09-21T10:27:11;2.58;;;1.33;;
21170;SDS011;10743;52.160;20.910;2022-09-21T10:29:41;2.47;;;1.10;;
21170;SDS011;10743;52.160;20.910;2022-09-21T10:34:40;1.40;;;1.00;;
21170;SDS011;10743;52.160;20.910;2022-09-21T10:37:27;1.00;;;0.90;;
21170;SDS011;10743;52.160;20.910;2022-09-21T10:40:22;1.08;;;0.98;;
21170;SDS011;10743;52.160;20.910;2022-09-21T10:42:55;0.98;;;0.90;;
21170;SDS011;10743;52.160;20.910;2022-09-21T10:45:25;1.20;;;1.02;;
21170;SDS011;10743;52.160;20.910;2022-09-21T10:50:35;1.38;;;0.90;;
21170;SDS011;10743;52.160;20.910;2022-09-21T10:53:29;1.25;;;1.00;;
21170;SDS011;10743;52.160;20.910;2022-09-21T11:01:48;1.25;;;1.05;;
21170;SDS011;10743;52.160;20.910;2022-09-21T11:10:00;1.42;;;0.85;;
21170;SDS011;10743;52.160;20.910;2022-09-21T11:12:50;1.05;;;0.95;;
21170;SDS011;10743;52.160;20.910;2022-09-21T11:15:48;5.90;;;1.08;;
21170;SDS011;10743;52.160;20.910;2022-09-21T11:18:40;1.40;;;0.90;;
21170;SDS011;10743;52.160;20.910;2022-09-21T11:29:35;1.20;;;1.00;;
21170;SDS011;10743;52.160;20.910;2022-09-21T11:32:24;0.95;;;0.80;;
21170;SDS011;10743;52.160;20.910;2022-09-21T11:38:10;1.05;;;1.00;;
21170;SDS011;10743;52.160;20.910;2022-09-21T11:41:17;2.45;;;0.80;;
21170;SDS011;10743;52.160;20.910;2022-09-21T11:53:19;2.05;;;0.80;;
21170;SDS011;10743;52.160;20.910;2022-09-21T12:14:02;0.90;;;0.80;;
21170;SDS011;10743;52.160;20.910;2022-09-21T12:17:00;0.70;;;0.70;;
21170;SDS011;10743;52.160;20.910;2022-09-21T12:19:46;1.00;;;0.88;;
21170;SDS011;10743;52.160;20.910;2022-09-21T12:22:47;2.30;;;1.10;;
21170;SDS011;10743;52.160;20.910;2022-09-21T12:25:32;0.88;;;0.80;;
21170;SDS011;10743;52.160;20.910;2022-09-21T12:28:22;0.80;;;0.70;;
21170;SDS011;10743;52.160;20.910;2022-09-21T12:30:58;2.92;;;0.80;;
21170;SDS011;10743;52.160;20.910;2022-09-21T12:33:33;0.82;;;0.82;;
21170;SDS011;10743;52.160;20.910;2022-09-21T12:36:21;2.72;;;0.75;;
21170;SDS011;10743;52.160;20.910;2022-09-21T12:38:57;0.60;;;0.60;;
21170;SDS011;10743;52.160;20.910;2022-09-21T12:41:46;3.33;;;0.80;;
21170;SDS011;10743;52.160;20.910;2022-09-21T12:44:41;3.70;;;0.80;;
21170;SDS011;10743;52.160;20.910;2022-09-21T12:47:21;0.88;;;0.70;;
21170;SDS011;10743;52.160;20.910;2022-09-21T12:50:21;0.70;;;0.70;;
21170;SDS011;10743;52.160;20.910;2022-09-21T12:52:59;0.98;;;0.80;;
21170;SDS011;10743;52.160;20.910;2022-09-21T12:55:37;3.42;;;1.15;;
21170;SDS011;10743;52.160;20.910;2022-09-21T12:58:55;1.73;;;1.00;;
21170;SDS011;10743;52.160;20.910;2022-09-21T13:01:54;4.00;;;1.00;;
21170;SDS011;10743;52.160;20.910;2022-09-21T13:04:44;1.35;;;0.93;;
21170;SDS011;10743;52.160;20.910;2022-09-21T13:08:10;1.30;;;1.20;;
21170;SDS011;10743;52.160;20.910;2022-09-21T13:10:35;1.25;;;1.02;;
21170;SDS011;10743;52.160;20.910;2022-09-21T13:13:31;0.60;;;0.60;;
21170;SDS011;10743;52.160;20.910;2022-09-21T13:16:29;3.72;;;0.73;;
21170;SDS011;10743;52.160;20.910;2022-09-21T13:25:06;0.70;;;0.65;;
21170;SDS011;10743;52.160;20.910;2022-09-21T13:33:02;2.30;;;1.27;;
21170;SDS011;10743;52.160;20.910;2022-09-21T13:38:23;1.10;;;1.00;;
21170;SDS011;10743;52.160;20.910;2022-09-21T13:41:24;1.83;;;0.90;;
21170;SDS011;10743;52.160;20.910;2022-09-21T13:46:58;0.98;;;0.70;;
21170;SDS011;10743;52.160;20.910;2022-09-21T13:49:29;0.98;;;0.65;;
21170;SDS011;10743;52.160;20.910;2022-09-21T13:52:00;0.85;;;0.65;;
21170;SDS011;10743;52.160;20.910;2022-09-21T13:54:45;1.42;;;0.90;;
21170;SDS011;10743;52.160;20.910;2022-09-21T14:02:44;6.65;;;1.30;;
21170;SDS011;10743;52.160;20.910;2022-09-21T14:13:58;2.33;;;1.50;;
21170;SDS011;10743;52.160;20.910;2022-09-21T14:16:48;1.98;;;1.30;;
21170;SDS011;10743;52.160;20.910;2022-09-21T14:24:36;2.15;;;1.25;;
21170;SDS011;10743;52.160;20.910;2022-09-21T14:35:29;11.13;;;1.40;;
21170;SDS011;10743;52.160;20.910;2022-09-21T14:38:04;1.75;;;0.90;;
21170;SDS011;10743;52.160;20.910;2022-09-21T14:40:46;2.70;;;0.73;;
21170;SDS011;10743;52.160;20.910;2022-09-21T14:43:18;1.08;;;0.70;;
21170;SDS011;10743;52.160;20.910;2022-09-21T14:46:15;2.85;;;0.70;;
21170;SDS011;10743;52.160;20.910;2022-09-21T15:07:15;1.00;;;0.70;;
21170;SDS011;10743;52.160;20.910;2022-09-21T15:10:34;1.85;;;0.90;;
21170;SDS011;10743;52.160;20.910;2022-09-21T15:13:39;2.70;;;0.73;;
21170;SDS011;10743;52.160;20.910;2022-09-21T15:16:33;2.00;;;1.13;;
21170;SDS011;10743;52.160;20.910;2022-09-21T15:19:12;1.65;;;0.90;;
21170;SDS011;10743;52.160;20.910;2022-09-21T15:21:49;1.50;;;1.00;;
21170;SDS011;10743;52.160;20.910;2022-09-21T15:24:26;2.15;;;0.98;;
21170;SDS011;10743;52.160;20.910;2022-09-21T15:27:01;1.67;;;0.70;;
21170;SDS011;10743;52.160;20.910;2022-09-21T15:29:32;2.33;;;1.15;;
21170;SDS011;10743;52.160;20.910;2022-09-21T15:31:59;1.90;;;0.95;;
21170;SDS011;10743;52.160;20.910;2022-09-21T15:34:27;1.58;;;1.10;;
21170;SDS011;10743;52.160;20.910;2022-09-21T15:37:04;3.83;;;1.15;;
21170;SDS011;10743;52.160;20.910;2022-09-21T15:39:41;3.35;;;1.48;;
21170;SDS011;10743;52.160;20.910;2022-09-21T15:44:36;8.00;;;1.42;;
21170;SDS011;10743;52.160;20.910;2022-09-21T15:47:09;1.92;;;1.20;;
21170;SDS011;10743;52.160;20.910;2022-09-21T15:49:38;1.10;;;0.80;;
21170;SDS011;10743;52.160;20.910;2022-09-21T15:52:19;4.28;;;0.90;;
21170;SDS011;10743;52.160;20.910;2022-09-21T15:54:57;4.53;;;1.10;;
21170;SDS011;10743;52.160;20.910;2022-09-21T16:02:48;2.90;;;1.10;;
21170;SDS011;10743;52.160;20.910;2022-09-21T16:05:48;3.60;;;1.23;;
21170;SDS011;10743;52.160;20.910;2022-09-21T16:08:27;2.75;;;1.10;;
21170;SDS011;10743;52.160;20.910;2022-09-21T16:11:15;3.38;;;1.30;;
21170;SDS011;10743;52.160;20.910;2022-09-21T16:13:59;1.98;;;1.00;;
21170;SDS011;10743;52.160;20.910;2022-09-21T16:22:24;2.10;;;1.10;;
21170;SDS011;10743;52.160;20.910;2022-09-21T16:24:55;0.80;;;0.80;;
21170;SDS011;10743;52.160;20.910;2022-09-21T16:27:25;5.68;;;1.33;;
21170;SDS011;10743;52.160;20.910;2022-09-21T16:29:55;1.02;;;0.70;;
21170;SDS011;10743;52.160;20.910;2022-09-21T16:32:30;0.75;;;0.60;;
21170;SDS011;10743;52.160;20.910;2022-09-21T16:37:57;1.83;;;1.00;;
21170;SDS011;10743;52.160;20.910;2022-09-21T16:40:24;5.53;;;2.90;;
21170;SDS011;10743;52.160;20.910;2022-09-21T16:42:53;9.30;;;3.88;;
21170;SDS011;10743;52.160;20.910;2022-09-21T16:45:25;6.72;;;3.30;;
21170;SDS011;10743;52.160;20.910;2022-09-21T16:47:56;5.28;;;2.60;;
21170;SDS011;10743;52.160;20.910;2022-09-21T16:50:24;8.60;;;3.50;;
21170;SDS011;10743;52.160;20.910;2022-09-21T16:52:51;5.13;;;2.70;;
21170;SDS011;10743;52.160;20.910;2022-09-21T16:55:18;6.28;;;2.53;;
21170;SDS011;10743;52.160;20.910;2022-09-21T16:57:53;3.35;;;1.80;;
21170;SDS011;10743;52.160;20.910;2022-09-21T17:00:20;5.40;;;1.50;;
21170;SDS011;10743;52.160;20.910;2022-09-21T17:02:47;2.90;;;1.70;;
21170;SDS011;10743;52.160;20.910;2022-09-21T17:05:15;5.93;;;1.98;;
21170;SDS011;10743;52.160;20.910;2022-09-21T17:08:02;6.25;;;2.15;;
21170;SDS011;10743;52.160;20.910;2022-09-21T17:10:30;5.38;;;2.30;;
21170;SDS011;10743;52.160;20.910;2022-09-21T17:13:02;4.35;;;2.40;;
21170;SDS011;10743;52.160;20.910;2022-09-21T17:15:31;4.63;;;1.83;;
21170;SDS011;10743;52.160;20.910;2022-09-21T17:17:59;3.95;;;1.70;;
21170;SDS011;10743;52.160;20.910;2022-09-21T17:20:36;2.55;;;1.67;;
21170;SDS011;10743;52.160;20.910;2022-09-21T17:23:07;4.45;;;1.73;;
21170;SDS011;10743;52.160;20.910;2022-09-21T17:25:34;2.97;;;1.85;;
21170;SDS011;10743;52.160;20.910;2022-09-21T17:28:03;2.65;;;1.70;;
21170;SDS011;10743;52.160;20.910;2022-09-21T17:30:38;3.28;;;1.80;;
21170;SDS011;10743;52.160;20.910;2022-09-21T17:33:08;6.45;;;1.95;;
21170;SDS011;10743;52.160;20.910;2022-09-21T17:35:37;4.13;;;2.20;;
21170;SDS011;10743;52.160;20.910;2022-09-21T17:38:06;5.43;;;2.50;;
21170;SDS011;10743;52.160;20.910;2022-09-21T17:40:39;5.20;;;2.83;;
21170;SDS011;10743;52.160;20.910;2022-09-21T17:46:46;11.15;;;7.13;;
21170;SDS011;10743;52.160;20.910;2022-09-21T17:49:24;52.72;;;27.98;;
21170;SDS011;10743;52.160;20.910;2022-09-21T17:51:51;155.63;;;80.47;;
21170;SDS011;10743;52.160;20.910;2022-09-21T17:54:37;119.60;;;63.08;;
21170;SDS011;10743;52.160;20.910;2022-09-21T17:57:52;110.22;;;55.55;;
21170;SDS011;10743;52.160;20.910;2022-09-21T18:00:21;74.93;;;37.78;;
21170;SDS011;10743;52.160;20.910;2022-09-21T18:02:52;252.85;;;115.50;;
21170;SDS011;10743;52.160;20.910;2022-09-21T18:05:21;292.67;;;131.98;;
21170;SDS011;10743;52.160;20.910;2022-09-21T18:07:52;346.50;;;156.38;;
21170;SDS011;10743;52.160;20.910;2022-09-21T18:10:20;292.50;;;142.02;;
21170;SDS011;10743;52.160;20.910;2022-09-21T18:13:09;161.10;;;82.05;;
21170;SDS011;10743;52.160;20.910;2022-09-21T18:16:11;138.20;;;73.50;;
21170;SDS011;10743;52.160;20.910;2022-09-21T18:19:00;355.23;;;144.35;;